Time;durP1;ratioP1;P1;durP2;ratioP2;P2;SDS_P1;SDS_P2;PMS_P1;PMS_P2;Temp;Humidity;BMP_temperature;BMP_pressure;BME280_temperature;BME280_humidity;BME280_pressure;Samples;Min_cycle;Max_cycle;Signal;HPM_P1;HPM_P2
2023/04/22 00:00:49;;;;;;;10.80;6.63;;;12.60;99.90;;;;;;5058049;28;20036;-80
2023/04/22 00:03:15;;;;;;;10.68;7.20;;;12.70;99.90;;;;;;5058180;28;20094;-80
2023/04/22 00:05:41;;;;;;;12.15;7.68;;;12.60;99.90;;;;;;5041855;28;20469;-80
2023/04/22 00:08:07;;;;;;;13.13;7.60;;;12.70;99.90;;;;;;5075917;28;20055;-79
2023/04/22 00:10:33;;;;;;;;;;;12.60;99.90;;;;;;5078024;28;20083;-80
2023/04/22 00:12:59;;;;;;;14.95;7.88;;;12.60;99.90;;;;;;5061512;28;19927;-80
2023/04/22 00:15:25;;;;;;;9.93;7.63;;;12.60;99.90;;;;;;5060778;28;20077;-80
2023/04/22 00:17:52;;;;;;;11.05;7.60;;;12.50;99.90;;;;;;5077499;28;20043;-80
2023/04/22 00:20:21;;;;;;;11.65;8.43;;;12.50;99.90;;;;;;5076876;28;20040;-80
2023/04/22 00:22:47;;;;;;;9.60;7.18;;;12.50;99.90;;;;;;5060113;28;20117;-80
2023/04/22 00:25:12;;;;;;;9.70;7.30;;;12.40;99.90;;;;;;5077849;28;20126;-79
2023/04/22 00:27:38;;;;;;;10.68;7.07;;;12.30;99.90;;;;;;5059774;28;20036;-80
2023/04/22 00:30:05;;;;;;;12.63;8.05;;;12.20;99.90;;;;;;5076784;28;20048;-80
2023/04/22 00:32:30;;;;;;;12.70;8.63;;;12.10;99.90;;;;;;5076171;28;20074;-80
2023/04/22 00:34:56;;;;;;;10.55;7.60;;;12.00;99.90;;;;;;5076455;28;20048;-80
2023/04/22 00:37:23;;;;;;;10.80;7.47;;;11.90;99.90;;;;;;5076511;28;20044;-81
2023/04/22 00:39:49;;;;;;;12.70;9.00;;;11.80;99.90;;;;;;5076658;28;20048;-81
2023/04/22 00:42:17;;;;;;;13.43;8.45;;;11.80;99.90;;;;;;5076106;28;20048;-80
2023/04/22 00:44:45;;;;;;;13.18;9.30;;;11.70;99.90;;;;;;5075942;28;20071;-80
2023/04/22 00:47:12;;;;;;;11.30;8.40;;;11.70;99.90;;;;;;5059595;28;20036;-80
2023/04/22 00:49:38;;;;;;;13.63;9.60;;;11.60;99.90;;;;;;5075821;28;20481;-80
2023/04/22 00:52:04;;;;;;;;;;;11.60;99.90;;;;;;5076429;28;20040;-80
2023/04/22 00:54:30;;;;;;;12.13;8.63;;;11.50;99.90;;;;;;5075878;28;19916;-80
2023/04/22 00:56:57;;;;;;;13.27;8.88;;;11.40;99.90;;;;;;5075960;28;20514;-80
2023/04/22 00:59:25;;;;;;;14.43;8.73;;;11.40;99.90;;;;;;5075308;28;20052;-80
2023/04/22 01:01:51;;;;;;;14.57;9.25;;;11.40;99.90;;;;;;5075563;28;20044;-80
2023/04/22 01:04:17;;;;;;;12.93;8.98;;;11.30;99.90;;;;;;5075662;28;20040;-80
2023/04/22 01:06:44;;;;;;;13.60;9.23;;;11.30;99.90;;;;;;5075746;28;20074;-79
2023/04/22 01:09:10;;;;;;;13.05;9.38;;;11.20;99.90;;;;;;5075817;28;20501;-80
2023/04/22 01:11:35;;;;;;;13.18;9.15;;;11.20;99.90;;;;;;5058859;28;20070;-78
2023/04/22 01:14:02;;;;;;;13.75;9.20;;;11.20;99.90;;;;;;5042252;28;20033;-79
2023/04/22 01:16:30;;;;;;;;;;;11.20;99.90;;;;;;5075790;28;20040;-79
2023/04/22 01:18:55;;;;;;;;;;;11.10;99.90;;;;;;5075383;28;19916;-79
2023/04/22 01:21:23;;;;;;;16.33;8.70;;;11.10;99.90;;;;;;5058571;28;19976;-79
2023/04/22 01:23:49;;;;;;;13.48;9.13;;;11.10;99.90;;;;;;5058356;28;20085;-79
2023/04/22 01:26:15;;;;;;;15.32;9.68;;;11.10;99.90;;;;;;5075582;28;20059;-78
2023/04/22 01:28:41;;;;;;;13.40;9.40;;;11.10;99.90;;;;;;5074813;28;20035;-79
2023/04/22 01:31:07;;;;;;;14.32;9.93;;;11.00;99.90;;;;;;5058654;28;20416;-80
2023/04/22 01:33:33;;;;;;;16.65;9.98;;;11.00;99.90;;;;;;5058251;28;20178;-80
2023/04/22 01:35:59;;;;;;;16.88;10.20;;;11.00;99.90;;;;;;5058689;28;20555;-80
2023/04/22 01:38:25;;;;;;;14.82;10.63;;;11.10;99.90;;;;;;5075142;28;20039;-80
2023/04/22 01:40:51;;;;;;;14.65;10.43;;;11.10;99.90;;;;;;5058412;28;20109;-79
2023/04/22 01:43:16;;;;;;;14.55;10.20;;;11.10;99.90;;;;;;5075119;28;20634;-79
2023/04/22 01:45:42;;;;;;;16.42;11.00;;;11.10;99.90;;;;;;5074704;28;20135;-80
2023/04/22 01:48:09;;;;;;;17.73;10.60;;;11.10;99.90;;;;;;5074767;28;20497;-80
2023/04/22 01:50:36;;;;;;;15.18;10.60;;;11.00;99.90;;;;;;5058165;28;20047;-80
2023/04/22 01:53:02;;;;;;;12.98;9.50;;;11.00;99.90;;;;;;5075177;28;20500;-80
2023/04/22 01:55:28;;;;;;;;;;;11.00;99.90;;;;;;5075243;28;20040;-80
2023/04/22 01:57:54;;;;;;;17.52;10.40;;;10.90;99.90;;;;;;5074875;28;19923;-79
2023/04/22 02:00:20;;;;;;;13.45;9.70;;;10.90;99.90;;;;;;5075152;28;20485;-80
2023/04/22 02:02:45;;;;;;;13.73;9.65;;;10.80;99.90;;;;;;5074774;28;20043;-79
2023/04/22 02:05:11;;;;;;;14.03;9.73;;;10.80;99.90;;;;;;5058475;28;20118;-79
2023/04/22 02:07:37;;;;;;;14.57;10.40;;;10.80;99.90;;;;;;5074824;28;20343;-79
2023/04/22 02:10:04;;;;;;;15.83;10.47;;;10.80;99.90;;;;;;5074620;28;20052;-79
2023/04/22 02:12:31;;;;;;;15.75;10.48;;;10.80;99.90;;;;;;5074513;28;20085;-80
2023/04/22 02:14:57;;;;;;;14.68;10.00;;;10.90;99.90;;;;;;5074530;28;20093;-80
2023/04/22 02:17:22;;;;;;;15.82;10.88;;;10.90;99.90;;;;;;5058330;28;20039;-79
2023/04/22 02:19:48;;;;;;;15.93;10.50;;;11.00;99.90;;;;;;5058283;28;20051;-80
2023/04/22 02:22:14;;;;;;;13.63;10.47;;;11.00;99.90;;;;;;5075076;28;20286;-80
2023/04/22 02:24:40;;;;;;;17.60;11.02;;;11.00;99.90;;;;;;5074164;28;20036;-80
2023/04/22 02:27:07;;;;;;;18.17;11.40;;;11.00;99.90;;;;;;5074123;28;20048;-79
2023/04/22 02:29:33;;;;;;;18.50;11.23;;;11.00;99.90;;;;;;5074285;28;20052;-80
2023/04/22 02:31:59;;;;;;;14.73;10.93;;;11.00;99.90;;;;;;5077830;28;20382;-79
2023/04/22 02:34:25;;;;;;;16.40;10.93;;;11.10;99.90;;;;;;5078419;28;20054;-79
2023/04/22 02:36:51;;;;;;;15.40;10.63;;;11.00;99.90;;;;;;5078187;28;20121;-79
2023/04/22 02:39:17;;;;;;;14.80;10.20;;;10.90;99.90;;;;;;5045293;28;20051;-79
2023/04/22 02:41:42;;;;;;;13.68;10.23;;;10.90;99.90;;;;;;5077750;28;20048;-79
2023/04/22 02:44:08;;;;;;;14.07;10.52;;;10.80;99.90;;;;;;5078240;28;20135;-79
2023/04/22 02:46:34;;;;;;;14.30;10.63;;;10.80;99.90;;;;;;5077649;28;20036;-80
2023/04/22 02:49:00;;;;;;;14.85;10.57;;;10.70;99.90;;;;;;5077693;28;20413;-79
2023/04/22 02:51:26;;;;;;;19.02;11.80;;;10.70;99.90;;;;;;5077874;28;20039;-80
2023/04/22 02:53:52;;;;;;;16.83;10.95;;;10.60;99.90;;;;;;5077941;28;20054;-80
2023/04/22 02:56:17;;;;;;;16.55;10.45;;;10.60;99.90;;;;;;5077948;28;20040;-79
2023/04/22 02:58:43;;;;;;;16.50;11.15;;;10.50;99.90;;;;;;5077559;28;20047;-80
2023/04/22 03:01:09;;;;;;;18.42;12.15;;;10.50;99.90;;;;;;5078032;28;20079;-80
2023/04/22 03:03:34;;;;;;;17.00;11.73;;;10.50;99.90;;;;;;5060872;28;20044;-79
2023/04/22 03:06:00;;;;;;;17.27;11.85;;;10.40;99.90;;;;;;5077483;28;20047;-79
2023/04/22 03:08:26;;;;;;;18.47;11.37;;;10.30;99.90;;;;;;5060665;28;20096;-79
2023/04/22 03:10:51;;;;;;;16.30;11.50;;;10.30;99.90;;;;;;5077692;28;20278;-80
2023/04/22 03:13:17;;;;;;;17.83;10.90;;;10.30;99.90;;;;;;5077470;28;20396;-79
2023/04/22 03:15:43;;;;;;;18.17;11.30;;;10.30;99.90;;;;;;5077081;28;20785;-79
2023/04/22 03:18:08;;;;;;;18.42;11.65;;;10.30;99.90;;;;;;5077552;28;20318;-79
2023/04/22 03:20:34;;;;;;;18.10;11.45;;;10.30;99.90;;;;;;5077576;28;20040;-80
2023/04/22 03:23:01;;;;;;;18.70;11.65;;;10.30;99.90;;;;;;5077577;28;20391;-79
2023/04/22 03:25:26;;;;;;;18.13;11.65;;;10.30;99.90;;;;;;5077246;28;20067;-80
2023/04/22 03:27:52;;;;;;;17.23;11.32;;;10.30;99.90;;;;;;5060368;28;20141;-80
2023/04/22 03:30:18;;;;;;;18.77;11.23;;;10.30;99.90;;;;;;5044318;28;20040;-80
2023/04/22 03:32:44;;;;;;;16.65;11.00;;;10.30;99.90;;;;;;5076863;28;20361;-80
2023/04/22 03:35:10;;;;;;;18.13;11.57;;;10.30;99.90;;;;;;5077317;28;20119;-80
2023/04/22 03:37:36;;;;;;;21.23;11.77;;;10.30;99.90;;;;;;5076661;28;20046;-80
2023/04/22 03:40:02;;;;;;;15.02;11.07;;;10.20;99.90;;;;;;5060462;28;20044;-80
2023/04/22 03:42:28;;;;;;;18.40;11.77;;;10.20;99.90;;;;;;5076543;28;20457;-80
2023/04/22 03:44:54;;;;;;;16.77;11.93;;;10.20;99.90;;;;;;5060443;28;20103;-79
2023/04/22 03:47:19;;;;;;;18.30;11.88;;;10.10;99.90;;;;;;5060202;28;20286;-80
2023/04/22 03:49:45;;;;;;;18.20;12.40;;;10.10;99.90;;;;;;5059729;28;20051;-80
2023/04/22 03:52:11;;;;;;;20.38;12.23;;;10.10;99.90;;;;;;5076689;28;20116;-79
2023/04/22 03:54:36;;;;;;;17.77;11.30;;;10.10;99.90;;;;;;5059583;28;20047;-79
2023/04/22 03:57:02;;;;;;;18.67;12.40;;;10.00;99.90;;;;;;5059918;28;20075;-79
2023/04/22 03:59:28;;;;;;;19.27;12.35;;;10.10;99.90;;;;;;5076429;28;20469;-79
2023/04/22 04:01:53;;;;;;;17.07;12.00;;;10.00;99.90;;;;;;5076184;28;20040;-79
2023/04/22 04:04:19;;;;;;;18.35;11.98;;;10.00;99.90;;;;;;5076291;28;20040;-79
2023/04/22 04:06:45;;;;;;;17.52;11.82;;;10.00;99.90;;;;;;5076357;28;20101;-79
2023/04/22 04:09:11;;;;;;;17.20;12.02;;;10.00;99.90;;;;;;5056401;28;20064;-79
2023/04/22 04:11:37;;;;;;;16.80;11.85;;;10.00;99.90;;;;;;5056312;28;20078;-79
2023/04/22 04:14:02;;;;;;;20.55;13.20;;;10.00;99.90;;;;;;5073258;28;20051;-79
2023/04/22 04:16:28;;;;;;;18.03;12.53;;;10.00;99.90;;;;;;5055989;28;20074;-80
2023/04/22 04:18:54;;;;;;;17.83;11.38;;;10.00;99.90;;;;;;5039603;28;20283;-79
2023/04/22 04:21:19;;;;;;;17.48;11.20;;;10.00;99.90;;;;;;5072737;28;20047;-80
2023/04/22 04:23:46;;;;;;;16.73;11.77;;;10.00;99.90;;;;;;5055915;28;20499;-79
2023/04/22 04:26:13;;;;;;;17.10;11.85;;;10.00;99.90;;;;;;5072609;28;20041;-79
2023/04/22 04:28:40;;;;;;;16.00;10.95;;;10.00;99.90;;;;;;5055939;28;20040;-80
2023/04/22 04:31:06;;;;;;;16.52;11.25;;;9.90;99.90;;;;;;5072634;28;20037;-80
2023/04/22 04:33:32;;;;;;;18.92;12.43;;;9.90;99.90;;;;;;5055908;28;20032;-79
2023/04/22 04:35:58;;;;;;;16.70;11.10;;;9.90;99.90;;;;;;5055690;28;20371;-79
2023/04/22 04:38:25;;;;;;;17.60;12.18;;;9.90;99.90;;;;;;5072427;28;20393;-80
2023/04/22 04:40:52;;;;;;;20.67;12.60;;;9.90;99.90;;;;;;5072232;28;20421;-79
2023/04/22 04:43:19;;;;;;;19.98;12.32;;;9.90;99.90;;;;;;5072303;28;20083;-79
2023/04/22 04:45:47;;;;;;;;;;;9.80;99.90;;;;;;5072313;28;20051;-79
2023/04/22 04:48:13;;;;;;;18.02;11.00;;;9.80;99.90;;;;;;5072035;28;19928;-79
2023/04/22 04:50:41;;;;;;;16.52;11.05;;;9.80;99.90;;;;;;5055571;28;20120;-79
2023/04/22 04:53:07;;;;;;;15.98;11.68;;;9.80;99.90;;;;;;5071824;28;20047;-79
2023/04/22 04:55:33;;;;;;;17.65;11.05;;;9.80;99.90;;;;;;5072097;28;20075;-79
2023/04/22 04:57:59;;;;;;;18.40;11.27;;;9.80;99.90;;;;;;5071495;28;20036;-80
2023/04/22 05:00:25;;;;;;;16.63;11.05;;;9.90;99.90;;;;;;5039003;28;20036;-79
2023/04/22 05:02:50;;;;;;;16.42;10.77;;;9.90;99.90;;;;;;5055042;28;20044;-80
2023/04/22 05:05:16;;;;;;;15.17;11.00;;;9.90;99.90;;;;;;5072108;28;20047;-79
2023/04/22 05:07:42;;;;;;;16.58;11.02;;;9.90;99.90;;;;;;5071724;28;20038;-79
2023/04/22 05:10:08;;;;;;;16.58;11.40;;;10.00;99.90;;;;;;5071302;28;20505;-78
2023/04/22 05:12:34;;;;;;;;;;;10.00;99.90;;;;;;5071656;28;20123;-79
2023/04/22 05:15:00;;;;;;;17.48;11.02;;;10.00;99.90;;;;;;5038345;28;19963;-79
2023/04/22 05:17:26;;;;;;;15.10;10.88;;;10.00;99.90;;;;;;5054993;28;20032;-79
2023/04/22 05:19:52;;;;;;;15.90;10.68;;;10.10;99.90;;;;;;5054795;28;20493;-79
2023/04/22 05:22:18;;;;;;;16.53;11.03;;;10.10;99.90;;;;;;5071388;28;20102;-79
2023/04/22 05:24:43;;;;;;;16.65;11.15;;;10.20;99.90;;;;;;5071142;28;20822;-80
2023/04/22 05:27:09;;;;;;;18.38;11.30;;;10.20;99.90;;;;;;5055052;28;20048;-79
2023/04/22 05:29:35;;;;;;;14.50;10.27;;;10.20;99.90;;;;;;5071215;28;20044;-79
2023/04/22 05:32:01;;;;;;;14.07;9.73;;;10.20;99.90;;;;;;5071153;28;20557;-80
2023/04/22 05:34:27;;;;;;;14.70;10.10;;;10.30;99.90;;;;;;5054802;28;20094;-79
2023/04/22 05:36:52;;;;;;;14.57;9.20;;;10.30;99.90;;;;;;5037998;28;20036;-79
2023/04/22 05:39:19;;;;;;;12.80;9.55;;;10.30;99.90;;;;;;5054953;28;20482;-80
2023/04/22 05:41:44;;;;;;;13.90;9.68;;;10.30;99.90;;;;;;5071145;28;20053;-79
2023/04/22 05:44:10;;;;;;;14.02;9.48;;;10.40;99.90;;;;;;5054376;28;20402;-80
2023/04/22 05:46:36;;;;;;;12.70;9.75;;;10.40;99.90;;;;;;5071104;28;20048;-80
2023/04/22 05:49:02;;;;;;;12.50;9.23;;;10.40;99.90;;;;;;5070977;28;20489;-80
2023/04/22 05:51:27;;;;;;;13.75;9.75;;;10.50;99.90;;;;;;5071284;28;20063;-78
2023/04/22 05:53:53;;;;;;;14.27;9.68;;;10.50;99.90;;;;;;5054286;28;20037;-79
2023/04/22 05:56:20;;;;;;;15.37;9.77;;;10.50;99.90;;;;;;5071345;28;20044;-79
2023/04/22 05:58:46;;;;;;;13.93;9.18;;;10.60;99.90;;;;;;5054247;28;20090;-80
2023/04/22 06:01:12;;;;;;;15.80;10.15;;;10.60;99.90;;;;;;5070952;28;20505;-79
2023/04/22 06:03:37;;;;;;;17.38;9.93;;;10.60;99.90;;;;;;5071024;28;20444;-80
2023/04/22 06:06:04;;;;;;;14.70;10.57;;;10.70;99.90;;;;;;5070245;28;20041;-79
2023/04/22 06:08:30;;;;;;;12.93;9.85;;;10.70;99.90;;;;;;5071930;28;20049;-79
2023/04/22 06:10:56;;;;;;;14.35;9.68;;;10.70;99.90;;;;;;5074664;28;20440;-80
2023/04/22 06:13:21;;;;;;;14.00;9.82;;;10.70;99.90;;;;;;5057816;28;20042;-80
2023/04/22 06:15:47;;;;;;;14.97;9.60;;;10.80;99.90;;;;;;5074394;28;20093;-80
2023/04/22 06:18:13;;;;;;;15.38;10.20;;;10.80;99.90;;;;;;5074497;28;20628;-79
2023/04/22 06:20:38;;;;;;;17.13;10.00;;;10.80;99.90;;;;;;5074891;28;20331;-79
2023/04/22 06:23:04;;;;;;;15.40;9.70;;;10.80;99.90;;;;;;5074195;28;20416;-79
2023/04/22 06:25:31;;;;;;;14.00;9.13;;;10.90;99.90;;;;;;5057811;28;20509;-79
2023/04/22 06:27:58;;;;;;;14.70;9.75;;;10.90;99.90;;;;;;5057284;28;20056;-79
2023/04/22 06:30:24;;;;;;;14.35;9.80;;;11.00;99.90;;;;;;5057453;28;20058;-79
2023/04/22 06:32:51;;;;;;;13.38;9.63;;;11.10;99.90;;;;;;5073748;28;20460;-79
2023/04/22 06:35:17;;;;;;;13.75;9.73;;;11.10;99.90;;;;;;5074208;28;20508;-79
2023/04/22 06:37:43;;;;;;;15.57;9.57;;;11.20;99.90;;;;;;5074202;28;20036;-80
2023/04/22 06:40:09;;;;;;;13.40;9.43;;;11.30;99.90;;;;;;5074648;28;20131;-80
2023/04/22 06:42:35;;;;;;;13.30;8.90;;;11.30;99.90;;;;;;5073939;28;20051;-79
2023/04/22 06:45:04;;;;;;;12.43;9.57;;;11.40;99.90;;;;;;5073757;28;20044;-80
2023/04/22 06:47:30;;;;;;;28.33;9.43;;;11.40;99.90;;;;;;5041380;28;20503;-79
2023/04/22 06:49:56;;;;;;;11.57;8.87;;;11.40;99.90;;;;;;5057133;28;20071;-78
2023/04/22 06:52:21;;;;;;;13.80;9.68;;;11.40;99.90;;;;;;5073998;28;20294;-79
2023/04/22 06:54:47;;;;;;;13.82;9.23;;;11.40;99.90;;;;;;5056798;28;20029;-79
2023/04/22 06:57:14;;;;;;;12.25;8.98;;;11.50;99.90;;;;;;5056933;28;20036;-80
2023/04/22 06:59:39;;;;;;;;;;;11.50;99.90;;;;;;5074324;28;20058;-79
2023/04/22 07:02:06;;;;;;;11.85;9.68;;;11.50;99.90;;;;;;5073479;28;19920;-79
2023/04/22 07:04:31;;;;;;;13.43;9.05;;;11.60;99.90;;;;;;5056806;28;20044;-79
2023/04/22 07:06:57;;;;;;;14.25;9.00;;;11.60;99.90;;;;;;5073542;28;20047;-79
2023/04/22 07:09:23;;;;;;;12.88;9.07;;;11.70;99.90;;;;;;5056813;28;20088;-80
2023/04/22 07:11:49;;;;;;;12.93;8.02;;;11.70;99.90;;;;;;5074140;28;20374;-79
2023/04/22 07:14:15;;;;;;;10.25;7.63;;;11.80;99.90;;;;;;5073572;28;20040;-80
2023/04/22 07:16:41;;;;;;;12.77;8.13;;;11.90;99.90;;;;;;5073747;28;20385;-79
2023/04/22 07:19:06;;;;;;;11.90;8.30;;;11.90;99.90;;;;;;5059974;28;20036;-80
2023/04/22 07:21:32;;;;;;;13.82;8.35;;;12.00;99.90;;;;;;5077536;28;20039;-79
2023/04/22 07:23:58;;;;;;;11.82;7.82;;;12.00;99.90;;;;;;5077184;28;20044;-79
2023/04/22 07:26:24;;;;;;;11.95;7.72;;;12.10;99.90;;;;;;5077224;28;20046;-79
2023/04/22 07:28:50;;;;;;;13.38;8.48;;;12.20;99.90;;;;;;5077219;28;20051;-79
2023/04/22 07:31:16;;;;;;;11.68;8.18;;;12.30;99.90;;;;;;5077201;28;20036;-80
2023/04/22 07:33:41;;;;;;;12.95;8.43;;;12.30;99.90;;;;;;5060212;28;20119;-79
2023/04/22 07:36:07;;;;;;;13.63;8.02;;;12.40;99.90;;;;;;5076864;28;20119;-79
2023/04/22 07:38:33;;;;;;;12.95;7.88;;;12.40;99.90;;;;;;5076764;28;20048;-79
2023/04/22 07:41:02;;;;;;;11.95;8.13;;;12.50;99.90;;;;;;5076890;28;20043;-79
2023/04/22 07:43:27;;;;;;;12.25;7.60;;;12.50;99.90;;;;;;5060440;28;20485;-80
2023/04/22 07:45:53;;;;;;;10.63;7.70;;;12.70;99.90;;;;;;5060208;28;20058;-80
2023/04/22 07:48:19;;;;;;;12.43;9.07;;;12.70;99.90;;;;;;5076570;28;20040;-80
2023/04/22 07:50:44;;;;;;;13.02;8.35;;;12.80;99.90;;;;;;5077007;28;20500;-79
2023/04/22 07:53:11;;;;;;;15.35;8.63;;;12.90;99.90;;;;;;5076621;28;20040;-80
2023/04/22 07:55:37;;;;;;;10.60;7.88;;;12.90;99.90;;;;;;5060004;28;20048;-80
2023/04/22 07:58:05;;;;;;;13.30;8.13;;;13.00;99.90;;;;;;5059943;28;20046;-80
2023/04/22 08:00:33;;;;;;;9.75;7.95;;;13.10;99.90;;;;;;5060051;28;20036;-79
2023/04/22 08:02:59;;;;;;;11.27;8.60;;;13.20;99.90;;;;;;5076244;28;20072;-79
2023/04/22 08:05:24;;;;;;;15.68;8.15;;;13.20;99.90;;;;;;5076554;28;20036;-79
2023/04/22 08:07:50;;;;;;;13.15;8.82;;;13.30;99.90;;;;;;5059859;28;20036;-79
2023/04/22 08:10:16;;;;;;;10.38;8.23;;;13.30;99.90;;;;;;5076333;28;20490;-80
2023/04/22 08:12:41;;;;;;;10.40;7.57;;;13.40;99.90;;;;;;5076386;28;20550;-78
2023/04/22 08:15:07;;;;;;;11.10;8.00;;;13.50;99.90;;;;;;5060110;28;20048;-80
2023/04/22 08:17:33;;;;;;;9.35;7.40;;;13.50;99.90;;;;;;5060142;28;20508;-80
2023/04/22 08:19:59;;;;;;;10.93;8.02;;;13.70;99.90;;;;;;5059747;28;20119;-80
2023/04/22 08:22:26;;;;;;;11.52;8.20;;;13.80;99.90;;;;;;5060288;28;20547;-80
2023/04/22 08:24:52;;;;;;;10.93;7.93;;;13.90;99.90;;;;;;5059816;28;20040;-80
2023/04/22 08:27:19;;;;;;;13.00;7.63;;;14.10;99.90;;;;;;5076224;28;20123;-79
2023/04/22 08:29:45;;;;;;;9.85;7.25;;;14.40;99.90;;;;;;5075800;28;20520;-79
2023/04/22 08:32:11;;;;;;;12.70;7.95;;;14.60;99.90;;;;;;5059821;28;20032;-80
2023/04/22 08:34:36;;;;;;;9.13;7.15;;;14.90;99.90;;;;;;5059638;28;20082;-80
2023/04/22 08:37:02;;;;;;;10.20;7.45;;;15.10;99.90;;;;;;5059431;28;20073;-80
2023/04/22 08:39:28;;;;;;;11.20;8.20;;;15.40;99.90;;;;;;5076332;28;20066;-80
2023/04/22 08:41:55;;;;;;;9.55;7.65;;;15.70;99.90;;;;;;5042942;28;20048;-80
2023/04/22 08:44:21;;;;;;;12.23;7.70;;;15.90;99.90;;;;;;5059329;28;20504;-79
2023/04/22 08:46:48;;;;;;;11.13;7.10;;;16.40;99.90;;;;;;5076199;28;20485;-79
2023/04/22 08:49:18;;;;;;;11.35;7.55;;;16.60;99.90;;;;;;5059157;28;20055;-81
2023/04/22 08:51:44;;;;;;;10.75;7.72;;;17.10;99.90;;;;;;5075950;28;20138;-78
2023/04/22 08:54:10;;;;;;;9.35;6.78;;;17.30;99.90;;;;;;5076031;28;20040;-80
2023/04/22 08:56:42;;;;;;;7.90;6.55;;;17.50;99.90;;;;;;5076589;28;20036;-80
2023/04/22 08:59:10;;;;;;;9.90;6.97;;;17.80;99.90;;;;;;5059226;28;20051;-80
2023/04/22 09:01:37;;;;;;;9.65;6.60;;;17.90;99.90;;;;;;5075964;28;20127;-80
2023/04/22 09:04:05;;;;;;;9.50;7.53;;;18.10;99.90;;;;;;5076448;28;20570;-80
2023/04/22 09:06:32;;;;;;;8.40;6.82;;;18.30;99.90;;;;;;5059521;28;20038;-80
2023/04/22 09:08:58;;;;;;;8.70;6.47;;;18.60;99.90;;;;;;5042750;28;20052;-80
2023/04/22 09:11:27;;;;;;;;;;;18.80;99.90;;;;;;5076450;28;20225;-80
2023/04/22 09:13:53;;;;;;;7.63;6.15;;;18.80;99.90;;;;;;5059296;28;19928;-81
2023/04/22 09:16:19;;;;;;;8.32;6.70;;;19.30;99.90;;;;;;5075600;28;20109;-81
2023/04/22 09:18:45;;;;;;;8.13;6.57;;;19.60;99.90;;;;;;5075532;28;20047;-81
2023/04/22 09:21:10;;;;;;;8.65;6.50;;;20.20;99.90;;;;;;5075793;28;20374;-81
2023/04/22 09:23:48;;;;;;;7.28;5.70;;;20.60;99.90;;;;;;5075941;28;20085;-80
2023/04/22 09:26:17;;;;;;;7.70;5.82;;;20.90;99.90;;;;;;5059166;28;20040;-80
2023/04/22 09:28:53;;;;;;;7.75;6.60;;;21.10;99.90;;;;;;5075405;28;20043;-80
2023/04/22 09:31:20;;;;;;;6.82;5.88;;;21.30;99.90;;;;;;5075423;28;20040;-80
2023/04/22 09:33:57;;;;;;;7.32;5.97;;;21.70;99.90;;;;;;5075210;28;20098;-79
2023/04/22 09:36:28;;;;;;;6.75;5.35;;;21.80;99.90;;;;;;5075036;28;20043;-80
2023/04/22 09:38:58;;;;;;;8.55;5.47;;;22.40;99.90;;;;;;5075359;28;20044;-81
2023/04/22 09:41:39;;;;;;;5.78;4.95;;;22.60;99.90;;;;;;5074678;28;20058;-81
2023/04/22 09:44:17;;;;;;;6.13;5.30;;;22.70;99.90;;;;;;5075381;28;20036;-81
2023/04/22 09:46:43;;;;;;;6.63;5.55;;;22.80;99.90;;;;;;5074935;28;20109;-81
2023/04/22 09:49:10;;;;;;;6.68;5.30;;;22.80;99.90;;;;;;5075373;28;20131;-81
2023/04/22 09:51:41;;;;;;;6.75;5.25;;;22.80;99.90;;;;;;5074971;28;20374;-81
2023/04/22 09:54:09;;;;;;;5.57;4.78;;;22.40;99.90;;;;;;5075491;28;20435;-81
2023/04/22 09:56:48;;;;;;;6.40;4.82;;;22.30;99.90;;;;;;5075052;28;20397;-81
2023/04/22 09:59:22;;;;;;;5.70;5.10;;;22.00;99.90;;;;;;5074931;28;20048;-80
2023/04/22 10:01:52;;;;;;;6.05;5.00;;;21.90;99.90;;;;;;5074807;28;20044;-80
2023/04/22 10:04:20;;;;;;;6.30;4.82;;;21.80;99.90;;;;;;5075368;28;20478;-81
2023/04/22 10:06:49;;;;;;;5.70;4.85;;;21.60;99.90;;;;;;5075655;28;20043;-80
2023/04/22 10:09:20;;;;;;;5.47;4.15;;;21.60;99.90;;;;;;5058141;28;20048;-81
2023/04/22 10:11:49;;;;;;;6.90;5.68;;;21.50;99.90;;;;;;5075100;28;20051;-80
2023/04/22 10:14:15;;;;;;;5.68;4.70;;;21.80;99.90;;;;;;5075198;28;20047;-80
2023/04/22 10:16:42;;;;;;;;;;;21.70;99.90;;;;;;5075692;28;20043;-82
2023/04/22 10:19:14;;;;;;;5.82;4.30;;;22.00;99.90;;;;;;5058620;28;20254;-81
2023/04/22 10:21:43;;;;;;;5.65;4.20;;;22.20;99.90;;;;;;5074406;28;20040;-81
2023/04/22 10:24:17;;;;;;;6.55;4.55;;;22.40;99.90;;;;;;5075024;28;20538;-81
2023/04/22 10:26:57;;;;;;;5.82;4.72;;;22.70;99.90;;;;;;5074527;28;20508;-81
2023/04/22 10:29:25;;;;;;;7.38;5.05;;;22.90;99.90;;;;;;5074192;28;20054;-81
2023/04/22 10:32:25;;;;;;;7.85;4.72;;;23.00;99.90;;;;;;5074735;28;20461;-80
2023/04/22 10:35:08;;;;;;;6.50;4.82;;;23.10;99.90;;;;;;5020285;28;20561;-80
2023/04/22 10:37:34;;;;;;;5.70;4.28;;;23.40;99.90;;;;;;5074192;28;20044;-80
2023/04/22 10:40:08;;;;;;;7.75;5.45;;;23.70;99.90;;;;;;5074447;28;20404;-80
2023/04/22 10:42:35;;;;;;;5.13;4.40;;;23.80;99.90;;;;;;5058200;28;20522;-80
2023/04/22 10:45:02;;;;;;;5.85;4.57;;;24.00;99.90;;;;;;5074648;28;20047;-81
2023/04/22 10:47:36;;;;;;;5.68;5.00;;;23.90;99.90;;;;;;5057465;28;20101;-81
2023/04/22 10:50:30;;;;;;;8.20;5.35;;;23.80;99.90;;;;;;5074029;28;20501;-81
2023/04/22 10:52:58;;;;;;;5.72;4.47;;;23.60;99.90;;;;;;5074637;28;20073;-81
2023/04/22 10:55:25;;;;;;;7.57;5.78;;;23.80;99.90;;;;;;5079301;28;20032;-81
2023/04/22 10:57:52;;;;;;;7.20;5.80;;;23.80;99.90;;;;;;5081049;28;20524;-81
2023/04/22 11:00:38;;;;;;;7.35;5.43;;;23.30;99.90;;;;;;5064195;28;20123;-81
2023/04/22 11:03:04;;;;;;;7.30;5.60;;;23.10;99.90;;;;;;5081669;28;20116;-82
2023/04/22 11:05:30;;;;;;;;;;;22.80;99.90;;;;;;5081069;28;20512;-82
2023/04/22 11:08:04;;;;;;;7.43;5.47;;;23.10;99.90;;;;;;5079069;28;19919;-82
2023/04/22 11:10:36;;;;;;;7.10;5.82;;;23.20;99.90;;;;;;5077679;28;20052;-82
2023/04/22 11:13:02;;;;;;;7.47;4.90;;;23.70;99.90;;;;;;5078080;28;20051;-81
2023/04/22 11:15:30;;;;;;;7.47;5.22;;;24.00;99.90;;;;;;5060951;28;20036;-80
2023/04/22 11:17:56;;;;;;;7.30;4.95;;;23.90;99.90;;;;;;5077466;28;20048;-81
2023/04/22 11:20:22;;;;;;;7.32;5.40;;;24.20;99.90;;;;;;5077395;28;20047;-81
2023/04/22 11:22:53;;;;;;;6.82;5.78;;;24.50;99.70;;;;;;5077476;28;20036;-81
2023/04/22 11:25:20;;;;;;;7.78;6.18;;;24.70;99.20;;;;;;5061084;28;20555;-82
2023/04/22 11:27:46;;;;;;;6.28;5.13;;;25.00;98.90;;;;;;5077650;28;20075;-82
2023/04/22 11:30:14;;;;;;;6.22;5.20;;;25.50;99.30;;;;;;5060882;28;20040;-82
2023/04/22 11:32:45;;;;;;;5.30;4.80;;;25.80;98.30;;;;;;5076665;28;20040;-81
2023/04/22 11:35:13;;;;;;;6.45;4.95;;;25.80;97.60;;;;;;5077396;28;20071;-81
2023/04/22 11:37:47;;;;;;;5.35;4.28;;;25.70;97.50;;;;;;5077074;28;20047;-81
2023/04/22 11:40:15;;;;;;;5.20;4.40;;;25.60;97.60;;;;;;5077142;28;20123;-81
2023/04/22 11:42:41;;;;;;;5.80;4.63;;;25.50;97.70;;;;;;5077874;28;20050;-81
2023/04/22 11:45:07;;;;;;;5.50;4.95;;;25.30;96.90;;;;;;5060704;28;20567;-81
2023/04/22 11:47:34;;;;;;;8.50;5.45;;;25.30;97.50;;;;;;5077458;28;20051;-82
2023/04/22 11:50:08;;;;;;;8.00;4.50;;;25.30;97.70;;;;;;5044541;28;20044;-81
2023/04/22 11:52:48;;;;;;;5.68;4.38;;;25.20;97.90;;;;;;5077363;28;20044;-82
2023/04/22 11:55:16;;;;;;;5.68;4.35;;;25.40;97.90;;;;;;5061216;28;20067;-81
2023/04/22 11:57:44;;;;;;;6.57;4.18;;;25.60;97.10;;;;;;5060870;28;20123;-81
2023/04/22 12:00:12;;;;;;;6.30;4.18;;;25.90;96.90;;;;;;5077546;28;20039;-82
2023/04/22 12:02:38;;;;;;;5.40;4.20;;;26.30;97.10;;;;;;5076336;28;20051;-82
2023/04/22 12:05:07;;;;;;;5.60;4.22;;;26.60;96.90;;;;;;5059003;28;20048;-83
2023/04/22 12:07:33;;;;;;;4.88;4.28;;;26.70;95.70;;;;;;5075723;28;20052;-81
2023/04/22 12:10:01;;;;;;;5.55;3.67;;;27.00;95.70;;;;;;5059143;28;20412;-82
2023/04/22 12:12:27;;;;;;;3.95;3.55;;;27.20;96.00;;;;;;5075256;28;20040;-82
2023/04/22 12:14:53;;;;;;;5.28;3.70;;;27.20;95.50;;;;;;5075405;28;20048;-81
2023/04/22 12:17:25;;;;;;;4.05;3.63;;;26.70;95.30;;;;;;5075843;28;20098;-81
2023/04/22 12:19:54;;;;;;;5.10;3.40;;;26.50;95.50;;;;;;5076612;28;20040;-82
2023/04/22 12:22:28;;;;;;;4.18;3.25;;;26.20;94.90;;;;;;5077285;28;20066;-81
2023/04/22 12:24:57;;;;;;;5.55;3.70;;;25.90;95.10;;;;;;5064578;28;20079;-81
2023/04/22 12:27:23;;;;;;;5.13;3.78;;;25.60;94.90;;;;;;5080198;28;20071;-81
2023/04/22 12:29:54;;;;;;;5.40;3.42;;;25.30;95.00;;;;;;5082017;28;20043;-81
2023/04/22 12:32:25;;;;;;;4.60;3.40;;;24.80;95.80;;;;;;5081592;28;20040;-81
2023/04/22 12:34:51;;;;;;;6.72;3.75;;;24.50;96.20;;;;;;5083422;28;20096;-81
2023/04/22 12:37:18;;;;;;;4.32;3.25;;;24.30;97.00;;;;;;5067729;28;20040;-80
2023/04/22 12:39:44;;;;;;;5.18;3.50;;;24.20;97.20;;;;;;5085681;28;20123;-80